Time;durP1;ratioP1;P1;durP2;ratioP2;P2;SDS_P1;SDS_P2;PMS_P1;PMS_P2;Temp;Humidity;BMP_temperature;BMP_pressure;BME280_temperature;BME280_humidity;BME280_pressure;Samples;Min_cycle;Max_cycle;Signal;HPM_P1;HPM_P2
2023/06/23 00:01:20;;;;;;;8.00;7.30;;;;;;;-145.89;100.00;61635.81;6011015;23;20067;-73
2023/06/23 00:03:46;;;;;;;10.02;7.55;;;;;;;-145.89;100.00;61635.81;6035425;23;20418;-73
2023/06/23 00:06:14;;;;;;;9.27;8.35;;;;;;;-145.89;100.00;61635.81;6019744;23;20576;-74
2023/06/23 00:08:41;;;;;;;8.45;7.75;;;;;;;-145.89;100.00;61635.81;6048650;23;20579;-73
2023/06/23 00:11:11;;;;;;;13.63;7.97;;;;;;;-145.89;100.00;61635.81;6020477;23;20027;-74
2023/06/23 00:13:38;;;;;;;8.23;7.38;;;;;;;-145.89;100.00;61635.81;6043100;23;20137;-76
2023/06/23 00:16:06;;;;;;;9.85;7.68;;;;;;;-145.89;100.00;61635.81;6010127;23;20034;-73
2023/06/23 00:18:37;;;;;;;8.95;8.02;;;;;;;-145.89;100.00;61635.81;6042228;23;20026;-74
2023/06/23 00:21:05;;;;;;;9.40;8.07;;;;;;;-145.89;100.00;61635.81;6011590;23;20035;-74
2023/06/23 00:23:32;;;;;;;8.77;7.80;;;;;;;-145.89;100.00;61635.81;6040676;23;20034;-74
2023/06/23 00:26:00;;;;;;;7.55;6.82;;;;;;;-145.89;100.00;61635.81;6020879;23;20033;-73
2023/06/23 00:28:30;;;;;;;8.23;7.50;;;;;;;-145.89;100.00;61635.81;6013248;23;20406;-74
2023/06/23 00:30:59;;;;;;;8.88;7.28;;;;;;;-145.89;100.00;61635.81;6050617;23;20039;-73
2023/06/23 00:33:25;;;;;;;8.27;7.57;;;;;;;-145.89;100.00;61635.81;6014555;23;20106;-73
2023/06/23 00:35:52;;;;;;;8.80;7.40;;;;;;;-145.89;100.00;61635.81;6025845;23;20033;-74
2023/06/23 00:38:19;;;;;;;9.30;8.40;;;;;;;-145.89;100.00;61635.81;6015210;23;20027;-74
2023/06/23 00:40:46;;;;;;;9.00;8.30;;;;;;;-145.89;100.00;61635.81;6045953;23;20030;-74
2023/06/23 00:43:12;;;;;;;7.95;7.30;;;;;;;-145.89;100.00;61635.81;6015964;23;20571;-73
2023/06/23 00:45:39;;;;;;;7.85;7.15;;;;;;;-145.89;100.00;61635.81;6047219;23;20645;-74
2023/06/23 00:48:05;;;;;;;11.93;7.28;;;;;;;-145.89;100.00;61635.81;6016952;23;20027;-74
2023/06/23 00:50:32;;;;;;;8.73;8.02;;;;;;;-145.89;100.00;61635.81;6050129;23;20027;-73
2023/06/23 00:52:59;;;;;;;8.65;7.47;;;;;;;-145.89;100.00;61635.81;6012758;23;20039;-74
2023/06/23 00:55:27;;;;;;;7.50;6.80;;;;;;;-145.89;100.00;61635.81;6045895;23;20030;-74
2023/06/23 00:57:55;;;;;;;7.57;6.97;;;;;;;-145.89;100.00;61635.81;6015733;23;20081;-72
2023/06/23 01:00:24;;;;;;;12.10;8.02;;;;;;;-145.89;100.00;61635.81;6021064;23;20018;-73
2023/06/23 01:02:53;;;;;;;7.97;7.22;;;;;;;-145.89;100.00;61635.81;6016681;23;20055;-73
2023/06/23 01:05:23;;;;;;;7.93;7.07;;;;;;;-145.89;100.00;61635.81;6044833;23;20050;-73
2023/06/23 01:08:32;;;;;;;8.30;7.60;;;;;;;-145.89;100.00;61635.81;5984907;23;20090;-72
2023/06/23 01:11:08;;;;;;;7.90;6.85;;;;;;;-145.89;100.00;61635.81;6049171;23;20027;-74
2023/06/23 01:13:40;;;;;;;8.02;6.88;;;;;;;-145.89;100.00;61635.81;6016770;23;20038;-74
2023/06/23 01:16:13;;;;;;;9.23;8.35;;;;;;;-145.89;100.00;61635.81;6044341;23;20085;-74
2023/06/23 01:18:49;;;;;;;7.30;6.63;;;;;;;-145.89;100.00;61635.81;6007549;23;20031;-73
2023/06/23 01:21:19;;;;;;;8.25;7.30;;;;;;;-145.89;100.00;61635.81;6018624;23;20043;-75
2023/06/23 01:24:03;;;;;;;8.02;6.97;;;;;;;-145.89;100.00;61635.81;6005353;23;20018;-73
2023/06/23 01:26:46;;;;;;;6.70;6.05;;;;;;;-145.89;100.00;61635.81;6046605;23;20026;-74
2023/06/23 01:29:28;;;;;;;10.38;7.28;;;;;;;-145.89;100.00;61635.81;6017172;23;20438;-72
2023/06/23 01:32:01;;;;;;;9.50;7.25;;;;;;;-145.89;100.00;61635.81;6037700;23;20085;-73
2023/06/23 01:34:38;;;;;;;7.43;6.72;;;;;;;-145.89;100.00;61635.81;6007913;23;20086;-73
2023/06/23 01:37:27;;;;;;;7.30;6.70;;;;;;;-145.89;100.00;61635.81;6031037;23;20072;-74
2023/06/23 01:39:58;;;;;;;7.13;6.53;;;;;;;-145.89;100.00;61635.81;6020656;23;20704;-74
2023/06/23 01:42:30;;;;;;;9.38;6.43;;;;;;;-145.89;100.00;61635.81;6021113;23;20115;-73
2023/06/23 01:45:00;;;;;;;7.13;6.63;;;;;;;-145.89;100.00;61635.81;6007426;23;20031;-73
2023/06/23 01:47:34;;;;;;;6.85;6.20;;;;;;;-145.89;100.00;61635.81;6053648;23;20295;-72
2023/06/23 01:50:04;;;;;;;6.82;6.28;;;;;;;-145.89;100.00;61635.81;5985085;23;20034;-72
2023/06/23 01:52:34;;;;;;;7.25;6.70;;;;;;;-145.89;100.00;61635.81;6025722;23;20022;-73
2023/06/23 01:55:02;;;;;;;6.45;5.93;;;;;;;-145.89;100.00;61635.81;6023658;23;20027;-73
2023/06/23 01:57:30;;;;;;;8.05;6.55;;;;;;;-145.89;100.00;61635.81;6025724;23;20042;-74
2023/06/23 01:59:58;;;;;;;7.75;7.05;;;;;;;-145.89;100.00;61635.81;5991497;23;20038;-72
2023/06/23 02:02:26;;;;;;;8.50;7.03;;;;;;;-145.89;100.00;61635.81;6048643;23;20035;-73
2023/06/23 02:04:57;;;;;;;6.53;6.05;;;;;;;-145.89;100.00;61635.81;6010386;23;20031;-71
2023/06/23 02:07:26;;;;;;;7.63;6.88;;;;;;;-145.89;100.00;61635.81;6047303;23;20026;-73
2023/06/23 02:09:55;;;;;;;7.05;6.32;;;;;;;-145.89;100.00;61635.81;6009729;23;20050;-73
2023/06/23 02:12:22;;;;;;;12.70;6.57;;;;;;;-145.89;100.00;61635.81;6047060;23;20031;-73
2023/06/23 02:14:49;;;;;;;7.53;6.82;;;;;;;-145.89;100.00;61635.81;6011918;23;20030;-73
2023/06/23 02:17:17;;;;;;;10.13;6.18;;;;;;;-145.89;100.00;61635.81;6045010;23;20093;-73
2023/06/23 02:19:47;;;;;;;7.15;6.40;;;;;;;-145.89;100.00;61635.81;6016536;23;20031;-72
2023/06/23 02:22:17;;;;;;;7.68;6.47;;;;;;;-145.89;100.00;61635.81;6049433;23;20023;-74
2023/06/23 02:24:46;;;;;;;7.07;6.45;;;;;;;-145.89;100.00;61635.81;6015679;23;20027;-74
2023/06/23 02:27:12;;;;;;;7.35;6.75;;;;;;;-145.89;100.00;61635.81;6046568;23;20006;-73
2023/06/23 02:29:40;;;;;;;6.53;6.03;;;;;;;-145.89;100.00;61635.81;6014013;23;20030;-73
2023/06/23 02:32:08;;;;;;;6.57;6.07;;;;;;;-145.89;100.00;61635.81;6051376;23;20014;-73
2023/06/23 02:34:35;;;;;;;7.35;6.65;;;;;;;-145.89;100.00;61635.81;6020027;23;20046;-74
2023/06/23 02:37:05;;;;;;;6.55;5.95;;;;;;;-145.89;100.00;61635.81;6051332;23;20084;-74
2023/06/23 02:39:37;;;;;;;8.32;7.43;;;;;;;-145.89;100.00;61635.81;6021973;23;20461;-73
2023/06/23 02:42:06;;;;;;;7.63;6.93;;;;;;;-145.89;100.00;61635.81;6043985;23;20019;-73
2023/06/23 02:44:37;;;;;;;7.80;6.90;;;;;;;-145.89;100.00;61635.81;6023135;23;20031;-73
2023/06/23 02:47:08;;;;;;;8.15;6.90;;;;;;;-145.89;100.00;61635.81;6050293;23;20057;-73
2023/06/23 02:49:37;;;;;;;6.93;6.28;;;;;;;-145.89;100.00;61635.81;6013580;23;20050;-73
2023/06/23 02:52:08;;;;;;;9.00;7.22;;;;;;;-145.89;100.00;61635.81;6049323;23;20081;-73
2023/06/23 02:54:40;;;;;;;7.43;6.72;;;;;;;-145.89;100.00;61635.81;6016515;23;20027;-73
2023/06/23 02:57:12;;;;;;;12.77;7.07;;;;;;;-145.89;100.00;61635.81;6045818;23;20021;-73
2023/06/23 02:59:41;;;;;;;;;;;;;;;-145.89;100.00;61635.81;6019044;23;20042;-73
2023/06/23 03:02:11;;;;;;;7.63;6.90;;;;;;;-145.89;100.00;61635.81;6037674;23;19918;-73
2023/06/23 03:04:41;;;;;;;7.82;7.20;;;;;;;-145.89;100.00;61635.81;6012143;23;20093;-72
2023/06/23 03:07:10;;;;;;;8.07;6.80;;;;;;;-145.89;100.00;61635.81;6046194;23;20058;-72
2023/06/23 03:09:37;;;;;;;10.27;7.93;;;;;;;-145.89;100.00;61635.81;5987026;23;20023;-73
2023/06/23 03:12:04;;;;;;;7.72;6.85;;;;;;;-145.89;100.00;61635.81;6048770;23;20026;-73
2023/06/23 03:14:31;;;;;;;12.43;8.35;;;;;;;-145.89;100.00;61635.81;6010791;23;20051;-73
2023/06/23 03:17:02;;;;;;;10.15;6.97;;;;;;;-145.89;100.00;61635.81;6050120;23;20022;-73
2023/06/23 03:19:43;;;;;;;8.63;7.53;;;;;;;-145.89;100.00;61635.81;6006838;23;20507;-73
2023/06/23 03:22:15;;;;;;;8.02;7.35;;;;;;;-145.89;100.00;61635.81;6049272;23;20446;-73
2023/06/23 03:24:45;;;;;;;13.05;7.45;;;;;;;-145.89;100.00;61635.81;6007536;23;20109;-73
2023/06/23 03:27:13;;;;;;;8.45;7.65;;;;;;;-145.89;100.00;61635.81;6040123;23;20515;-74
2023/06/23 03:29:55;;;;;;;9.55;8.02;;;;;;;-145.89;100.00;61635.81;6008106;23;20031;-73
2023/06/23 03:32:37;;;;;;;8.02;7.38;;;;;;;-145.89;100.00;61635.81;6025251;23;20014;-72
2023/06/23 03:35:10;;;;;;;7.40;6.65;;;;;;;-145.89;100.00;61635.81;6014897;23;20055;-72
2023/06/23 03:37:45;;;;;;;9.57;8.20;;;;;;;-145.89;100.00;61635.81;6046932;23;20508;-74
2023/06/23 03:40:14;;;;;;;8.10;7.30;;;;;;;-145.89;100.00;61635.81;6012041;23;20034;-73
2023/06/23 03:42:47;;;;;;;13.20;7.80;;;;;;;-145.89;100.00;61635.81;6045544;23;20037;-73
2023/06/23 03:45:16;;;;;;;8.90;7.53;;;;;;;-145.89;100.00;61635.81;6020667;23;20050;-72
2023/06/23 03:47:45;;;;;;;8.57;7.78;;;;;;;-145.89;100.00;61635.81;6046064;23;20023;-73
2023/06/23 03:50:17;;;;;;;8.10;7.43;;;;;;;-145.89;100.00;61635.81;6011166;23;20108;-73
2023/06/23 03:52:45;;;;;;;10.38;8.05;;;;;;;-145.89;100.00;61635.81;6046460;23;20057;-73
2023/06/23 03:55:13;;;;;;;11.80;7.85;;;;;;;-145.89;100.00;61635.81;6010769;23;20027;-72
2023/06/23 03:57:42;;;;;;;9.90;8.80;;;;;;;-145.89;100.00;61635.81;6046359;23;20109;-74
2023/06/23 04:00:09;;;;;;;10.13;8.80;;;;;;;-145.89;100.00;61635.81;6011718;23;20502;-73
2023/06/23 04:02:37;;;;;;;8.75;7.70;;;;;;;-145.89;100.00;61635.81;6042786;23;20026;-73
2023/06/23 04:05:05;;;;;;;14.02;8.55;;;;;;;-145.89;100.00;61635.81;5986252;23;20624;-73
2023/06/23 04:07:34;;;;;;;10.50;8.95;;;;;;;-145.89;100.00;61635.81;6044427;23;20681;-74
2023/06/23 04:10:04;;;;;;;8.95;8.05;;;;;;;-145.89;100.00;61635.81;6012659;23;20049;-73
2023/06/23 04:12:33;;;;;;;11.32;8.45;;;;;;;-145.89;100.00;61635.81;6046559;23;20053;-73
2023/06/23 04:15:03;;;;;;;10.20;8.68;;;;;;;-145.89;100.00;61635.81;5991962;23;20614;-73
2023/06/23 04:17:33;;;;;;;10.15;7.97;;;;;;;-145.89;100.00;61635.81;6049309;23;20742;-73
2023/06/23 04:20:03;;;;;;;9.70;8.70;;;;;;;-145.89;100.00;61635.81;6017939;23;20034;-74
2023/06/23 04:22:31;;;;;;;9.77;8.45;;;;;;;-145.89;100.00;61635.81;6044765;23;20034;-73
2023/06/23 04:25:00;;;;;;;9.43;8.40;;;;;;;-145.89;100.00;61635.81;6013278;23;20448;-73
2023/06/23 04:27:29;;;;;;;10.15;7.80;;;;;;;-145.89;100.00;61635.81;6040000;23;20023;-73
2023/06/23 04:29:57;;;;;;;13.25;8.38;;;;;;;-145.89;100.00;61635.81;6010804;23;20031;-73
2023/06/23 04:32:24;;;;;;;14.90;8.68;;;;;;;-145.89;100.00;61635.81;6046874;23;20028;-73
2023/06/23 04:34:51;;;;;;;9.45;8.35;;;;;;;-145.89;100.00;61635.81;5991520;23;20360;-73
2023/06/23 04:37:26;;;;;;;10.77;7.93;;;;;;;-145.89;100.00;61635.81;6046717;23;20021;-73
2023/06/23 04:40:20;;;;;;;10.48;9.38;;;;;;;-145.89;100.00;61635.81;6015267;23;20556;-73
2023/06/23 04:42:54;;;;;;;10.38;9.27;;;;;;;-145.89;100.00;61635.81;6043659;23;20148;-73
2023/06/23 04:45:25;;;;;;;10.02;8.88;;;;;;;-145.89;100.00;61635.81;6014256;23;20011;-73
2023/06/23 04:47:56;;;;;;;11.27;9.13;;;;;;;-145.89;100.00;61635.81;6009826;23;20368;-73
2023/06/23 04:50:27;;;;;;;9.98;8.95;;;;;;;-145.89;100.00;61635.81;6005905;23;20022;-73
2023/06/23 04:52:59;;;;;;;9.75;8.80;;;;;;;-145.89;100.00;61635.81;6045275;23;20019;-73
2023/06/23 04:55:32;;;;;;;9.65;7.95;;;;;;;-145.89;100.00;61635.81;6007809;23;20046;-74
2023/06/23 04:58:03;;;;;;;9.63;8.73;;;;;;;-145.89;100.00;61635.81;6043738;23;20028;-72
2023/06/23 05:00:30;;;;;;;10.23;9.23;;;;;;;-145.89;100.00;61635.81;6008558;23;20070;-72
2023/06/23 05:02:59;;;;;;;14.30;9.23;;;;;;;-145.89;100.00;61635.81;6042222;23;20053;-74
2023/06/23 05:05:28;;;;;;;15.27;10.15;;;;;;;-145.89;100.00;61635.81;6012665;23;20462;-73
2023/06/23 05:07:57;;;;;;;13.15;9.52;;;;;;;-145.89;100.00;61635.81;6013781;23;20023;-73
2023/06/23 05:10:26;;;;;;;13.30;9.43;;;;;;;-145.89;100.00;61635.81;5986976;23;20090;-73
2023/06/23 05:12:55;;;;;;;10.57;9.38;;;;;;;-145.89;100.00;61635.81;6041928;23;20011;-74
2023/06/23 05:15:23;;;;;;;10.07;9.15;;;;;;;-145.89;100.00;61635.81;6003184;23;20020;-73
2023/06/23 05:17:53;;;;;;;13.77;9.88;;;;;;;-145.89;100.00;61635.81;6042368;23;20046;-73
2023/06/23 05:20:22;;;;;;;12.38;10.20;;;;;;;-145.89;100.00;61635.81;6005069;23;20046;-72
2023/06/23 05:22:50;;;;;;;11.25;9.43;;;;;;;-145.89;100.00;61635.81;6047939;23;20540;-73
2023/06/23 05:25:19;;;;;;;14.30;10.43;;;;;;;-145.89;100.00;61635.81;5987295;23;20017;-73
2023/06/23 05:27:46;;;;;;;16.55;10.20;;;;;;;-145.89;100.00;61635.81;6051799;23;20027;-73
2023/06/23 05:30:18;;;;;;;12.82;10.35;;;;;;;-145.89;100.00;61635.81;6014639;23;20026;-73
2023/06/23 05:32:48;;;;;;;12.15;9.82;;;;;;;-145.89;100.00;61635.81;6032876;23;20031;-72
2023/06/23 05:35:17;;;;;;;11.63;10.20;;;;;;;-145.89;100.00;61635.81;5996697;23;20027;-73
2023/06/23 05:37:46;;;;;;;14.77;11.00;;;;;;;-145.89;100.00;61635.81;6046743;23;20034;-73
2023/06/23 05:40:14;;;;;;;10.63;9.52;;;;;;;-145.89;100.00;61635.81;6013176;23;20031;-72
2023/06/23 05:42:41;;;;;;;12.82;9.55;;;;;;;-145.89;100.00;61635.81;6042695;23;20018;-73
2023/06/23 05:45:10;;;;;;;13.63;11.15;;;;;;;-145.89;100.00;61635.81;6018297;23;20650;-73
2023/06/23 05:47:55;;;;;;;11.40;9.65;;;;;;;-145.89;100.00;61635.81;6052655;23;20042;-73
2023/06/23 05:50:25;;;;;;;16.63;11.45;;;;;;;-145.89;100.00;61635.81;6011577;23;20078;-73
2023/06/23 05:53:02;;;;;;;12.00;9.88;;;;;;;-145.89;100.00;61635.81;6020179;23;20030;-72
2023/06/23 05:55:31;;;;;;;13.90;9.80;;;;;;;-145.89;100.00;61635.81;5997912;23;20605;-73
2023/06/23 05:58:04;;;;;;;13.63;10.02;;;;;;;-145.89;100.00;61635.81;6045172;23;20587;-73
2023/06/23 06:00:38;;;;;;;13.82;10.45;;;;;;;-145.89;100.00;61635.81;6012018;23;20031;-72
2023/06/23 06:03:07;;;;;;;12.77;10.35;;;;;;;-145.89;100.00;61635.81;6043361;23;20014;-75
2023/06/23 06:05:36;;;;;;;13.57;10.07;;;;;;;-145.89;100.00;61635.81;6021038;23;20604;-74
2023/06/23 06:08:04;;;;;;;13.25;9.88;;;;;;;-145.89;100.00;61635.81;6046996;23;20442;-73
2023/06/23 06:10:31;;;;;;;11.13;9.98;;;;;;;-145.89;100.00;61635.81;6007996;23;20128;-74
2023/06/23 06:13:00;;;;;;;12.20;10.40;;;;;;;-145.89;100.00;61635.81;6051204;23;20046;-73
2023/06/23 06:15:28;;;;;;;12.25;10.20;;;;;;;-145.89;100.00;61635.81;6012882;23;20120;-72
2023/06/23 06:17:57;;;;;;;14.32;10.57;;;;;;;-145.89;100.00;61635.81;6052316;23;20503;-73
2023/06/23 06:20:26;;;;;;;13.60;9.70;;;;;;;-145.89;100.00;61635.81;6013778;23;20031;-73
2023/06/23 06:22:53;;;;;;;13.35;11.02;;;;;;;-145.89;100.00;61635.81;6049313;23;20030;-73
2023/06/23 06:25:38;;;;;;;12.60;10.73;;;;;;;-145.89;100.00;61635.81;5985283;23;20086;-72
2023/06/23 06:28:09;;;;;;;16.67;9.65;;;;;;;-145.89;100.00;61635.81;6046226;23;20018;-73
2023/06/23 06:30:40;;;;;;;12.85;9.90;;;;;;;-145.89;100.00;61635.81;6013324;23;20027;-73
2023/06/23 06:33:09;;;;;;;12.70;10.35;;;;;;;-145.89;100.00;61635.81;6052392;23;20084;-73
2023/06/23 06:35:38;;;;;;;12.48;10.10;;;;;;;-145.89;100.00;61635.81;6011014;23;20027;-73
2023/06/23 06:38:06;;;;;;;12.05;9.90;;;;;;;-145.89;100.00;61635.81;6049833;23;20061;-73
2023/06/23 06:40:35;;;;;;;15.13;9.90;;;;;;;-145.89;100.00;61635.81;6007396;23;20043;-73
2023/06/23 06:43:01;;;;;;;16.75;10.25;;;;;;;-145.89;100.00;61635.81;6051764;23;20029;-73
2023/06/23 06:45:28;;;;;;;15.50;9.63;;;;;;;-145.89;100.00;61635.81;6011035;23;20032;-72
2023/06/23 06:47:58;;;;;;;11.55;10.13;;;;;;;-145.89;100.00;61635.81;6049373;23;20038;-74
2023/06/23 06:50:26;;;;;;;13.88;10.57;;;;;;;-145.89;100.00;61635.81;6016872;23;20266;-72
2023/06/23 06:52:54;;;;;;;11.43;10.23;;;;;;;-145.89;100.00;61635.81;6047489;23;20034;-72
2023/06/23 06:55:21;;;;;;;13.95;10.88;;;;;;;-145.89;100.00;61635.81;6014409;23;20007;-73
2023/06/23 06:57:48;;;;;;;10.50;9.38;;;;;;;-145.89;100.00;61635.81;6046073;23;20028;-73
2023/06/23 07:00:19;;;;;;;10.98;9.77;;;;;;;-145.89;100.00;61635.81;6013371;23;20031;-73
2023/06/23 07:02:46;;;;;;;14.23;10.55;;;;;;;-145.89;100.00;61635.81;6026692;23;20042;-72
2023/06/23 07:05:13;;;;;;;13.45;9.13;;;;;;;-145.89;100.00;61635.81;6013287;23;20037;-72
2023/06/23 07:07:40;;;;;;;12.63;10.57;;;;;;;-145.89;100.00;61635.81;6046387;23;20030;-72
2023/06/23 07:10:07;;;;;;;14.10;10.13;;;;;;;-145.89;100.00;61635.81;6013172;23;20105;-72
2023/06/23 07:12:33;;;;;;;11.35;9.82;;;;;;;-145.89;100.00;61635.81;6042676;23;20157;-72
2023/06/23 07:15:00;;;;;;;14.27;10.80;;;;;;;-145.89;100.00;61635.81;6013317;23;20026;-72
2023/06/23 07:17:26;;;;;;;12.52;10.35;;;;;;;-145.89;100.00;61635.81;6050346;23;20445;-72
2023/06/23 07:19:53;;;;;;;14.48;9.65;;;;;;;-145.89;100.00;61635.81;6022331;23;20077;-72
2023/06/23 07:22:19;;;;;;;15.07;9.70;;;;;;;-145.89;100.00;61635.81;6043045;23;20033;-72
2023/06/23 07:24:46;;;;;;;11.77;10.07;;;;;;;-145.89;100.00;61635.81;6023489;23;20027;-72
2023/06/23 07:27:14;;;;;;;12.30;9.88;;;;;;;-145.89;100.00;61635.81;6046679;23;20097;-72
2023/06/23 07:29:41;;;;;;;15.52;9.63;;;;;;;-145.89;100.00;61635.81;6022339;23;20096;-72
2023/06/23 07:32:08;;;;;;;13.40;9.85;;;;;;;-145.89;100.00;61635.81;6045502;23;20080;-72
2023/06/23 07:34:35;;;;;;;12.82;10.07;;;;;;;-145.89;100.00;61635.81;6018872;23;20030;-72
2023/06/23 07:37:01;;;;;;;16.05;9.80;;;;;;;-145.89;100.00;61635.81;6040342;23;20025;-72
2023/06/23 07:39:28;;;;;;;10.98;9.82;;;;;;;-145.89;100.00;61635.81;6010542;23;20092;-72
2023/06/23 07:41:54;;;;;;;11.82;10.07;;;;;;;-145.89;100.00;61635.81;6039653;23;20399;-72
2023/06/23 07:44:21;;;;;;;9.77;8.80;;;;;;;-145.89;100.00;61635.81;6009574;23;20421;-72
2023/06/23 07:46:47;;;;;;;10.77;9.13;;;;;;;-145.89;100.00;61635.81;6045613;23;20023;-72
2023/06/23 07:49:14;;;;;;;11.07;9.15;;;;;;;-145.89;100.00;61635.81;6010136;23;20017;-72
2023/06/23 07:51:40;;;;;;;10.07;8.73;;;;;;;-145.89;100.00;61635.81;6018686;23;20026;-73
2023/06/23 07:54:06;;;;;;;11.68;9.85;;;;;;;-145.89;100.00;61635.81;6011422;23;20599;-72
2023/06/23 07:56:33;;;;;;;9.65;8.75;;;;;;;-145.89;100.00;61635.81;6046305;23;20019;-72
2023/06/23 07:59:00;;;;;;;9.60;8.60;;;;;;;-145.89;100.00;61635.81;6014677;23;20188;-73
2023/06/23 08:01:26;;;;;;;10.55;9.43;;;;;;;-145.89;100.00;61635.81;6050270;23;20106;-73
2023/06/23 08:03:52;;;;;;;12.13;9.60;;;;;;;-145.89;100.00;61635.81;6018125;23;20028;-72
2023/06/23 08:06:23;;;;;;;14.63;9.27;;;;;;;-145.89;100.00;61635.81;6038280;23;20043;-72
2023/06/23 08:08:50;;;;;;;10.07;8.57;;;;;;;-145.89;100.00;61635.81;6006434;23;20153;-73
2023/06/23 08:11:17;;;;;;;10.48;9.00;;;;;;;-145.89;100.00;61635.81;6044120;23;20021;-73
2023/06/23 08:13:44;;;;;;;11.98;8.95;;;;;;;-145.89;100.00;61635.81;6012691;23;20027;-72
2023/06/23 08:16:11;;;;;;;11.88;9.65;;;;;;;-145.89;100.00;61635.81;6046478;23;20133;-72
2023/06/23 08:18:37;;;;;;;12.02;9.02;;;;;;;-145.89;100.00;61635.81;5982951;23;20036;-72
2023/06/23 08:21:04;;;;;;;12.45;9.30;;;;;;;-145.89;100.00;61635.81;6038531;23;20023;-72
2023/06/23 08:23:30;;;;;;;10.05;8.32;;;;;;;-145.89;100.00;61635.81;6015658;23;20030;-73
2023/06/23 08:26:04;;;;;;;9.10;8.20;;;;;;;-145.89;100.00;61635.81;6044932;23;20023;-72
2023/06/23 08:28:30;;;;;;;9.10;8.23;;;;;;;-145.89;100.00;61635.81;6010915;23;20599;-72
2023/06/23 08:30:57;;;;;;;10.45;8.90;;;;;;;-145.89;100.00;61635.81;6023624;23;20598;-72
2023/06/23 08:33:24;;;;;;;9.20;8.30;;;;;;;-145.89;100.00;61635.81;6001897;23;20026;-72
2023/06/23 08:35:50;;;;;;;8.77;7.88;;;;;;;-145.89;100.00;61635.81;6047488;23;20097;-72
2023/06/23 08:38:18;;;;;;;9.02;8.27;;;;;;;-145.89;100.00;61635.81;6011584;23;20305;-73
2023/06/23 08:40:47;;;;;;;11.68;8.45;;;;;;;-145.89;100.00;61635.81;6045279;23;20556;-72
2023/06/23 08:43:15;;;;;;;9.73;8.82;;;;;;;-145.89;100.00;61635.81;6005789;23;20346;-74
2023/06/23 08:45:50;;;;;;;11.45;9.60;;;;;;;-145.89;100.00;61635.81;6040682;23;20101;-72
2023/06/23 08:48:18;;;;;;;9.55;8.40;;;;;;;-145.89;100.00;61635.81;6003535;23;20023;-72
2023/06/23 08:50:45;;;;;;;9.27;8.48;;;;;;;-145.89;100.00;61635.81;6046440;23;20097;-72
2023/06/23 08:53:11;;;;;;;11.95;9.18;;;;;;;-145.89;100.00;61635.81;6006703;23;20607;-72
2023/06/23 08:55:38;;;;;;;10.13;9.10;;;;;;;-145.89;100.00;61635.81;6050307;23;20045;-72
2023/06/23 08:58:05;;;;;;;10.27;9.10;;;;;;;-145.89;100.00;61635.81;6009616;23;20027;-72
2023/06/23 09:00:31;;;;;;;9.75;8.80;;;;;;;-145.89;100.00;61635.81;6045034;23;20030;-72
2023/06/23 09:02:58;;;;;;;10.35;9.07;;;;;;;-145.89;100.00;61635.81;6001050;23;20027;-72
2023/06/23 09:05:25;;;;;;;13.70;8.50;;;;;;;-145.89;100.00;61635.81;6046032;23;20046;-72
2023/06/23 09:07:52;;;;;;;10.10;9.10;;;;;;;-145.89;100.00;61635.81;6007370;23;20047;-72
2023/06/23 09:10:18;;;;;;;9.95;9.02;;;;;;;-145.89;100.00;61635.81;6046342;23;20010;-72
2023/06/23 09:13:06;;;;;;;9.55;8.48;;;;;;;-145.89;100.00;61635.81;6015134;23;20159;-72
2023/06/23 09:15:34;;;;;;;9.43;8.40;;;;;;;-145.89;100.00;61635.81;6048333;23;20625;-72
2023/06/23 09:18:21;;;;;;;9.27;8.38;;;;;;;-145.89;100.00;61635.81;6003576;23;20070;-72
2023/06/23 09:20:49;;;;;;;9.07;8.27;;;;;;;-145.89;100.00;61635.81;6023579;23;20041;-72
2023/06/23 09:23:18;;;;;;;10.20;9.30;;;;;;;-145.89;100.00;61635.81;6001620;23;20070;-72
2023/06/23 09:25:54;;;;;;;12.05;8.88;;;;;;;-145.89;100.00;61635.81;6043229;23;20575;-72
2023/06/23 09:28:31;;;;;;;9.70;8.80;;;;;;;-145.89;100.00;61635.81;6005969;23;20066;-74
2023/06/23 09:31:00;;;;;;;9.52;8.45;;;;;;;-145.89;100.00;61635.81;6048167;23;20060;-72
2023/06/23 09:33:27;;;;;;;8.27;7.47;;;;;;;-145.89;100.00;61635.81;6015841;23;20092;-73
2023/06/23 09:35:55;;;;;;;8.63;7.93;;;;;;;-145.89;100.00;61635.81;6021161;23;20038;-73
2023/06/23 09:38:24;;;;;;;9.00;8.10;;;;;;;-145.89;100.00;61635.81;6010379;23;20031;-72
2023/06/23 09:41:14;;;;;;;8.68;7.88;;;;;;;-145.89;100.00;61635.81;6049519;23;20054;-72
2023/06/23 09:43:43;;;;;;;7.72;7.13;;;;;;;-145.89;100.00;61635.81;6010060;23;20090;-72
2023/06/23 09:46:11;;;;;;;8.23;7.43;;;;;;;-145.89;100.00;61635.81;6046247;23;20027;-72
2023/06/23 09:48:40;;;;;;;8.70;7.93;;;;;;;-145.89;100.00;61635.81;6015030;23;20045;-71
2023/06/23 09:51:06;;;;;;;7.55;7.05;;;;;;;-145.89;100.00;61635.81;6061828;23;20022;-71
2023/06/23 09:53:35;;;;;;;9.15;8.32;;;;;;;-145.89;100.00;61635.81;6001802;23;20055;-71
2023/06/23 09:56:03;;;;;;;9.38;8.57;;;;;;;-145.89;100.00;61635.81;6045830;23;20034;-72
2023/06/23 09:58:37;;;;;;;10.13;8.50;;;;;;;-145.89;100.00;61635.81;6001864;23;20015;-72
2023/06/23 10:01:09;;;;;;;9.52;8.65;;;;;;;-145.89;100.00;61635.81;6042111;23;20781;-72
2023/06/23 10:03:48;;;;;;;9.35;8.18;;;;;;;-145.89;100.00;61635.81;5985278;23;20031;-72
2023/06/23 10:06:25;;;;;;;8.55;7.22;;;;;;;-145.89;100.00;61635.81;6046600;23;20038;-71
2023/06/23 10:08:56;;;;;;;8.70;7.93;;;;;;;-145.89;100.00;61635.81;6010351;23;20556;-72
2023/06/23 10:11:37;;;;;;;9.38;8.48;;;;;;;-145.89;100.00;61635.81;6053149;23;20011;-71
2023/06/23 10:14:07;;;;;;;8.02;7.43;;;;;;;-145.89;100.00;61635.81;5987759;23;20086;-72
2023/06/23 10:16:35;;;;;;;10.48;8.65;;;;;;;-145.89;100.00;61635.81;6049801;23;20034;-72
2023/06/23 10:19:03;;;;;;;7.97;7.32;;;;;;;-145.89;100.00;61635.81;6015067;23;20054;-72
2023/06/23 10:21:33;;;;;;;8.10;7.30;;;;;;;-145.89;100.00;61635.81;6047118;23;20022;-72
2023/06/23 10:24:09;;;;;;;8.15;7.55;;;;;;;-145.89;100.00;61635.81;5981905;23;20022;-71
2023/06/23 10:26:37;;;;;;;8.88;7.50;;;;;;;-145.89;100.00;61635.81;6046688;23;20022;-72
2023/06/23 10:29:06;;;;;;;9.88;8.02;;;;;;;-145.89;100.00;61635.81;6010259;23;20029;-71
2023/06/23 10:31:35;;;;;;;8.82;7.70;;;;;;;-145.89;100.00;61635.81;6053583;23;20060;-71
2023/06/23 10:34:05;;;;;;;7.75;7.13;;;;;;;-145.89;100.00;61635.81;6013612;23;20023;-71
2023/06/23 10:36:38;;;;;;;8.20;7.50;;;;;;;-145.89;100.00;61635.81;6055037;23;20413;-71
2023/06/23 10:39:06;;;;;;;7.50;7.00;;;;;;;-145.89;100.00;61635.81;6015138;23;20094;-71
2023/06/23 10:41:34;;;;;;;8.27;7.47;;;;;;;-145.89;100.00;61635.81;6043967;23;20038;-71
2023/06/23 10:44:03;;;;;;;7.32;6.82;;;;;;;-145.89;100.00;61635.81;6011861;23;20708;-71
2023/06/23 10:46:29;;;;;;;8.00;7.32;;;;;;;-145.89;100.00;61635.81;6051096;23;20684;-72
2023/06/23 10:49:00;;;;;;;7.65;7.15;;;;;;;-145.89;100.00;61635.81;6009274;23;20046;-71
2023/06/23 10:51:28;;;;;;;8.32;7.72;;;;;;;-145.89;100.00;61635.81;6045419;23;20521;-73
2023/06/23 10:54:05;;;;;;;10.52;8.13;;;;;;;-145.89;100.00;61635.81;6007309;23;20055;-72
2023/06/23 10:56:33;;;;;;;8.02;7.32;;;;;;;-145.89;100.00;61635.81;6045939;23;20561;-72
2023/06/23 10:58:59;;;;;;;7.47;6.97;;;;;;;-145.89;100.00;61635.81;6004696;23;20038;-72
2023/06/23 11:01:26;;;;;;;8.60;7.80;;;;;;;-145.89;100.00;61635.81;6046007;23;20033;-70
2023/06/23 11:03:57;;;;;;;7.80;7.20;;;;;;;-145.89;100.00;61635.81;6015182;23;20038;-70
2023/06/23 11:06:34;;;;;;;7.43;6.82;;;;;;;-145.89;100.00;61635.81;6047777;23;20066;-70
2023/06/23 11:09:01;;;;;;;7.57;7.07;;;;;;;-145.89;100.00;61635.81;6013275;23;20030;-72
2023/06/23 11:11:33;;;;;;;7.72;7.22;;;;;;;-145.89;100.00;61635.81;6049765;23;20033;-72
2023/06/23 11:14:00;;;;;;;7.80;7.10;;;;;;;-145.89;100.00;61635.81;6009190;23;20042;-72
2023/06/23 11:16:30;;;;;;;7.55;7.05;;;;;;;-145.89;100.00;61635.81;6018413;23;20093;-72